sensor_id;sensor_type;location;lat;lon;timestamp;P1;durP1;ratioP1;P2;durP2;ratioP2
39788;SDS011;25478;42.626;23.320;2023-08-08T00:00:35;2.65;;;1.58;;
39788;SDS011;25478;42.626;23.320;2023-08-08T00:03:01;2.63;;;1.52;;
39788;SDS011;25478;42.626;23.320;2023-08-08T00:05:26;3.40;;;1.90;;
39788;SDS011;25478;42.626;23.320;2023-08-08T00:07:52;3.30;;;1.50;;
39788;SDS011;25478;42.626;23.320;2023-08-08T00:10:17;2.97;;;1.70;;
39788;SDS011;25478;42.626;23.320;2023-08-08T00:12:43;3.30;;;1.70;;
39788;SDS011;25478;42.626;23.320;2023-08-08T00:15:08;3.63;;;1.80;;
39788;SDS011;25478;42.626;23.320;2023-08-08T00:17:35;4.05;;;1.73;;
39788;SDS011;25478;42.626;23.320;2023-08-08T00:20:01;2.60;;;1.58;;
39788;SDS011;25478;42.626;23.320;2023-08-08T00:22:27;3.40;;;2.03;;
39788;SDS011;25478;42.626;23.320;2023-08-08T00:24:52;2.70;;;1.58;;
39788;SDS011;25478;42.626;23.320;2023-08-08T00:27:18;3.47;;;1.60;;
39788;SDS011;25478;42.626;23.320;2023-08-08T00:29:44;3.38;;;1.90;;
39788;SDS011;25478;42.626;23.320;2023-08-08T00:32:10;2.77;;;2.00;;
39788;SDS011;25478;42.626;23.320;2023-08-08T00:34:36;3.47;;;1.90;;
39788;SDS011;25478;42.626;23.320;2023-08-08T00:37:01;3.20;;;2.10;;
39788;SDS011;25478;42.626;23.320;2023-08-08T00:39:27;2.30;;;2.00;;
39788;SDS011;25478;42.626;23.320;2023-08-08T00:41:52;3.50;;;2.50;;
39788;SDS011;25478;42.626;23.320;2023-08-08T00:44:18;3.47;;;2.50;;
39788;SDS011;25478;42.626;23.320;2023-08-08T00:46:44;3.70;;;2.50;;
39788;SDS011;25478;42.626;23.320;2023-08-08T00:49:10;3.53;;;2.33;;
39788;SDS011;25478;42.626;23.320;2023-08-08T00:51:36;3.57;;;2.30;;
39788;SDS011;25478;42.626;23.320;2023-08-08T00:54:02;4.20;;;2.50;;
39788;SDS011;25478;42.626;23.320;2023-08-08T00:56:30;2.97;;;2.27;;
39788;SDS011;25478;42.626;23.320;2023-08-08T00:58:57;2.57;;;1.97;;
39788;SDS011;25478;42.626;23.320;2023-08-08T01:01:22;3.07;;;2.37;;
39788;SDS011;25478;42.626;23.320;2023-08-08T01:03:48;3.17;;;2.20;;
39788;SDS011;25478;42.626;23.320;2023-08-08T01:08:59;3.10;;;2.03;;
39788;SDS011;25478;42.626;23.320;2023-08-08T01:11:30;2.40;;;1.70;;
39788;SDS011;25478;42.626;23.320;2023-08-08T01:13:59;2.63;;;1.80;;
39788;SDS011;25478;42.626;23.320;2023-08-08T01:16:26;2.47;;;1.77;;
39788;SDS011;25478;42.626;23.320;2023-08-08T01:18:54;3.47;;;1.70;;
39788;SDS011;25478;42.626;23.320;2023-08-08T01:21:20;3.53;;;2.00;;
39788;SDS011;25478;42.626;23.320;2023-08-08T01:23:47;2.73;;;1.97;;
39788;SDS011;25478;42.626;23.320;2023-08-08T01:26:21;3.40;;;2.00;;
39788;SDS011;25478;42.626;23.320;2023-08-08T01:28:47;2.37;;;1.70;;
39788;SDS011;25478;42.626;23.320;2023-08-08T01:31:12;3.10;;;1.83;;
39788;SDS011;25478;42.626;23.320;2023-08-08T01:33:38;2.33;;;1.63;;
39788;SDS011;25478;42.626;23.320;2023-08-08T01:36:10;2.80;;;1.93;;
39788;SDS011;25478;42.626;23.320;2023-08-08T01:38:44;3.47;;;2.47;;
39788;SDS011;25478;42.626;23.320;2023-08-08T01:41:13;2.63;;;1.90;;
39788;SDS011;25478;42.626;23.320;2023-08-08T01:43:40;4.37;;;2.10;;
39788;SDS011;25478;42.626;23.320;2023-08-08T01:46:06;3.30;;;2.00;;
39788;SDS011;25478;42.626;23.320;2023-08-08T01:48:33;4.63;;;2.20;;
39788;SDS011;25478;42.626;23.320;2023-08-08T01:50:59;3.90;;;2.30;;
39788;SDS011;25478;42.626;23.320;2023-08-08T01:53:25;3.03;;;2.03;;
39788;SDS011;25478;42.626;23.320;2023-08-08T01:55:52;2.93;;;2.03;;
39788;SDS011;25478;42.626;23.320;2023-08-08T01:58:18;3.30;;;2.03;;
39788;SDS011;25478;42.626;23.320;2023-08-08T02:00:43;3.63;;;2.30;;
39788;SDS011;25478;42.626;23.320;2023-08-08T02:03:10;3.17;;;2.07;;
39788;SDS011;25478;42.626;23.320;2023-08-08T02:05:36;5.07;;;2.10;;
39788;SDS011;25478;42.626;23.320;2023-08-08T02:08:02;3.97;;;2.57;;
39788;SDS011;25478;42.626;23.320;2023-08-08T02:10:29;3.87;;;2.57;;
39788;SDS011;25478;42.626;23.320;2023-08-08T02:12:55;2.90;;;2.17;;
39788;SDS011;25478;42.626;23.320;2023-08-08T02:15:20;3.77;;;2.30;;
39788;SDS011;25478;42.626;23.320;2023-08-08T02:17:46;3.43;;;2.13;;
39788;SDS011;25478;42.626;23.320;2023-08-08T02:20:12;3.93;;;2.60;;
39788;SDS011;25478;42.626;23.320;2023-08-08T02:22:38;4.00;;;2.40;;
39788;SDS011;25478;42.626;23.320;2023-08-08T02:25:03;6.33;;;3.80;;
39788;SDS011;25478;42.626;23.320;2023-08-08T02:27:30;6.10;;;3.70;;
39788;SDS011;25478;42.626;23.320;2023-08-08T02:29:56;4.20;;;2.70;;
39788;SDS011;25478;42.626;23.320;2023-08-08T02:32:23;4.40;;;2.60;;
39788;SDS011;25478;42.626;23.320;2023-08-08T02:34:49;4.63;;;2.60;;
39788;SDS011;25478;42.626;23.320;2023-08-08T02:37:14;4.33;;;2.70;;
39788;SDS011;25478;42.626;23.320;2023-08-08T02:39:41;3.50;;;2.47;;
39788;SDS011;25478;42.626;23.320;2023-08-08T02:42:09;4.13;;;2.50;;
39788;SDS011;25478;42.626;23.320;2023-08-08T02:44:35;3.60;;;2.50;;
39788;SDS011;25478;42.626;23.320;2023-08-08T02:47:01;3.40;;;2.50;;
39788;SDS011;25478;42.626;23.320;2023-08-08T02:49:26;3.17;;;2.30;;
39788;SDS011;25478;42.626;23.320;2023-08-08T02:51:52;3.37;;;2.43;;
39788;SDS011;25478;42.626;23.320;2023-08-08T02:54:17;3.87;;;2.60;;
39788;SDS011;25478;42.626;23.320;2023-08-08T02:56:43;4.10;;;2.93;;
39788;SDS011;25478;42.626;23.320;2023-08-08T02:59:10;4.73;;;3.13;;
39788;SDS011;25478;42.626;23.320;2023-08-08T03:01:35;3.90;;;3.33;;
39788;SDS011;25478;42.626;23.320;2023-08-08T03:04:06;4.00;;;2.90;;
39788;SDS011;25478;42.626;23.320;2023-08-08T03:06:31;3.70;;;2.77;;
39788;SDS011;25478;42.626;23.320;2023-08-08T03:08:57;4.97;;;2.97;;
39788;SDS011;25478;42.626;23.320;2023-08-08T03:11:23;4.30;;;2.90;;
39788;SDS011;25478;42.626;23.320;2023-08-08T03:13:49;3.40;;;2.97;;
39788;SDS011;25478;42.626;23.320;2023-08-08T03:16:14;4.07;;;2.70;;
39788;SDS011;25478;42.626;23.320;2023-08-08T03:18:41;3.53;;;2.90;;
39788;SDS011;25478;42.626;23.320;2023-08-08T03:21:06;6.57;;;3.37;;
39788;SDS011;25478;42.626;23.320;2023-08-08T03:23:33;4.00;;;3.30;;
39788;SDS011;25478;42.626;23.320;2023-08-08T03:25:59;3.93;;;3.10;;
39788;SDS011;25478;42.626;23.320;2023-08-08T03:28:25;5.03;;;3.40;;
39788;SDS011;25478;42.626;23.320;2023-08-08T03:30:53;3.83;;;3.30;;
39788;SDS011;25478;42.626;23.320;2023-08-08T03:33:18;4.20;;;3.33;;
39788;SDS011;25478;42.626;23.320;2023-08-08T03:35:44;3.87;;;3.37;;
39788;SDS011;25478;42.626;23.320;2023-08-08T03:38:09;4.13;;;3.37;;
39788;SDS011;25478;42.626;23.320;2023-08-08T03:40:35;5.13;;;3.63;;
39788;SDS011;25478;42.626;23.320;2023-08-08T03:43:00;3.87;;;3.43;;
39788;SDS011;25478;42.626;23.320;2023-08-08T03:45:27;4.77;;;3.97;;
39788;SDS011;25478;42.626;23.320;2023-08-08T03:47:53;4.27;;;3.63;;
39788;SDS011;25478;42.626;23.320;2023-08-08T03:50:19;4.53;;;3.33;;
39788;SDS011;25478;42.626;23.320;2023-08-08T03:52:45;4.57;;;3.30;;
39788;SDS011;25478;42.626;23.320;2023-08-08T03:55:10;4.93;;;3.33;;
39788;SDS011;25478;42.626;23.320;2023-08-08T03:57:37;4.50;;;3.30;;
39788;SDS011;25478;42.626;23.320;2023-08-08T04:00:03;4.47;;;3.70;;
39788;SDS011;25478;42.626;23.320;2023-08-08T04:02:39;4.97;;;3.40;;
39788;SDS011;25478;42.626;23.320;2023-08-08T04:05:05;3.97;;;3.30;;
39788;SDS011;25478;42.626;23.320;2023-08-08T04:07:31;4.90;;;3.63;;
39788;SDS011;25478;42.626;23.320;2023-08-08T04:09:57;4.90;;;3.67;;
39788;SDS011;25478;42.626;23.320;2023-08-08T04:12:23;4.30;;;3.90;;
39788;SDS011;25478;42.626;23.320;2023-08-08T04:14:48;5.73;;;3.77;;
39788;SDS011;25478;42.626;23.320;2023-08-08T04:17:14;6.17;;;3.77;;
39788;SDS011;25478;42.626;23.320;2023-08-08T04:19:39;4.07;;;3.67;;
39788;SDS011;25478;42.626;23.320;2023-08-08T04:22:05;4.13;;;3.60;;
39788;SDS011;25478;42.626;23.320;2023-08-08T04:24:30;4.73;;;4.07;;
39788;SDS011;25478;42.626;23.320;2023-08-08T04:26:56;4.43;;;3.37;;
39788;SDS011;25478;42.626;23.320;2023-08-08T04:29:21;3.70;;;3.20;;
39788;SDS011;25478;42.626;23.320;2023-08-08T04:33:47;7.10;;;5.73;;
39788;SDS011;25478;42.626;23.320;2023-08-08T04:36:13;9.83;;;6.97;;
39788;SDS011;25478;42.626;23.320;2023-08-08T04:38:38;11.63;;;7.50;;
39788;SDS011;25478;42.626;23.320;2023-08-08T04:41:04;8.23;;;6.20;;
39788;SDS011;25478;42.626;23.320;2023-08-08T04:43:29;5.50;;;4.80;;
39788;SDS011;25478;42.626;23.320;2023-08-08T04:45:55;4.60;;;4.00;;
39788;SDS011;25478;42.626;23.320;2023-08-08T04:48:20;5.97;;;5.00;;
39788;SDS011;25478;42.626;23.320;2023-08-08T04:50:46;6.30;;;4.30;;
39788;SDS011;25478;42.626;23.320;2023-08-08T04:53:12;4.83;;;4.17;;
39788;SDS011;25478;42.626;23.320;2023-08-08T04:55:37;6.22;;;3.60;;
39788;SDS011;25478;42.626;23.320;2023-08-08T04:58:04;5.15;;;4.15;;
39788;SDS011;25478;42.626;23.320;2023-08-08T05:00:30;4.40;;;3.80;;
39788;SDS011;25478;42.626;23.320;2023-08-08T05:02:55;5.47;;;3.97;;
39788;SDS011;25478;42.626;23.320;2023-08-08T05:05:21;4.97;;;4.10;;
39788;SDS011;25478;42.626;23.320;2023-08-08T05:07:46;4.80;;;3.53;;
39788;SDS011;25478;42.626;23.320;2023-08-08T05:10:12;5.20;;;3.70;;
39788;SDS011;25478;42.626;23.320;2023-08-08T05:12:37;4.80;;;3.60;;
39788;SDS011;25478;42.626;23.320;2023-08-08T05:15:03;4.30;;;3.38;;
39788;SDS011;25478;42.626;23.320;2023-08-08T05:17:30;5.45;;;3.47;;
39788;SDS011;25478;42.626;23.320;2023-08-08T05:19:56;5.40;;;3.20;;
39788;SDS011;25478;42.626;23.320;2023-08-08T05:22:22;4.38;;;3.10;;
39788;SDS011;25478;42.626;23.320;2023-08-08T05:24:47;4.47;;;3.20;;
39788;SDS011;25478;42.626;23.320;2023-08-08T05:27:13;3.45;;;2.88;;
39788;SDS011;25478;42.626;23.320;2023-08-08T05:29:38;3.67;;;2.80;;
39788;SDS011;25478;42.626;23.320;2023-08-08T05:32:06;5.18;;;2.92;;
39788;SDS011;25478;42.626;23.320;2023-08-08T05:34:35;4.07;;;2.95;;
39788;SDS011;25478;42.626;23.320;2023-08-08T05:37:01;5.05;;;2.80;;
39788;SDS011;25478;42.626;23.320;2023-08-08T05:39:26;3.75;;;2.90;;
39788;SDS011;25478;42.626;23.320;2023-08-08T05:41:52;3.22;;;2.72;;
39788;SDS011;25478;42.626;23.320;2023-08-08T05:44:18;3.85;;;2.88;;
39788;SDS011;25478;42.626;23.320;2023-08-08T05:46:43;4.97;;;2.97;;
39788;SDS011;25478;42.626;23.320;2023-08-08T05:49:09;3.88;;;2.30;;
39788;SDS011;25478;42.626;23.320;2023-08-08T05:51:34;3.53;;;2.70;;
39788;SDS011;25478;42.626;23.320;2023-08-08T05:54:00;4.15;;;2.72;;
39788;SDS011;25478;42.626;23.320;2023-08-08T05:56:27;4.80;;;3.40;;
39788;SDS011;25478;42.626;23.320;2023-08-08T05:58:59;3.72;;;3.20;;
39788;SDS011;25478;42.626;23.320;2023-08-08T06:01:25;4.45;;;3.40;;
39788;SDS011;25478;42.626;23.320;2023-08-08T06:03:50;5.50;;;4.00;;
39788;SDS011;25478;42.626;23.320;2023-08-08T06:06:18;5.15;;;4.32;;
39788;SDS011;25478;42.626;23.320;2023-08-08T06:08:43;4.63;;;3.80;;
39788;SDS011;25478;42.626;23.320;2023-08-08T06:11:09;5.72;;;4.18;;
39788;SDS011;25478;42.626;23.320;2023-08-08T06:13:34;4.50;;;4.10;;
39788;SDS011;25478;42.626;23.320;2023-08-08T06:16:00;5.05;;;3.92;;
39788;SDS011;25478;42.626;23.320;2023-08-08T06:18:26;6.00;;;3.38;;
39788;SDS011;25478;42.626;23.320;2023-08-08T06:20:52;5.90;;;3.50;;
39788;SDS011;25478;42.626;23.320;2023-08-08T06:23:17;4.25;;;3.80;;
39788;SDS011;25478;42.626;23.320;2023-08-08T06:25:43;4.78;;;3.83;;
39788;SDS011;25478;42.626;23.320;2023-08-08T06:28:08;3.58;;;3.13;;
39788;SDS011;25478;42.626;23.320;2023-08-08T06:30:34;4.95;;;3.33;;
39788;SDS011;25478;42.626;23.320;2023-08-08T06:32:59;4.47;;;3.28;;
39788;SDS011;25478;42.626;23.320;2023-08-08T06:35:25;5.32;;;3.40;;
39788;SDS011;25478;42.626;23.320;2023-08-08T06:37:50;4.70;;;3.38;;
39788;SDS011;25478;42.626;23.320;2023-08-08T06:40:15;3.22;;;2.80;;
39788;SDS011;25478;42.626;23.320;2023-08-08T06:42:41;3.65;;;2.70;;
39788;SDS011;25478;42.626;23.320;2023-08-08T06:45:07;4.25;;;2.60;;
39788;SDS011;25478;42.626;23.320;2023-08-08T06:47:34;4.07;;;2.30;;
39788;SDS011;25478;42.626;23.320;2023-08-08T06:50:00;3.03;;;2.10;;
39788;SDS011;25478;42.626;23.320;2023-08-08T06:52:26;3.60;;;2.53;;
39788;SDS011;25478;42.626;23.320;2023-08-08T06:54:51;3.60;;;2.42;;
39788;SDS011;25478;42.626;23.320;2023-08-08T06:57:17;3.38;;;2.38;;
39788;SDS011;25478;42.626;23.320;2023-08-08T06:59:42;3.83;;;2.60;;
39788;SDS011;25478;42.626;23.320;2023-08-08T07:02:08;3.22;;;2.30;;
39788;SDS011;25478;42.626;23.320;2023-08-08T07:06:12;3.17;;;2.03;;
39788;SDS011;25478;42.626;23.320;2023-08-08T07:08:37;2.80;;;1.80;;
39788;SDS011;25478;42.626;23.320;2023-08-08T07:11:06;5.13;;;2.20;;
39788;SDS011;25478;42.626;23.320;2023-08-08T07:13:32;4.35;;;1.88;;
39788;SDS011;25478;42.626;23.320;2023-08-08T07:15:57;3.40;;;2.25;;
39788;SDS011;25478;42.626;23.320;2023-08-08T07:18:23;5.68;;;2.22;;
39788;SDS011;25478;42.626;23.320;2023-08-08T07:20:48;2.63;;;1.67;;
39788;SDS011;25478;42.626;23.320;2023-08-08T07:23:15;5.70;;;2.10;;
39788;SDS011;25478;42.626;23.320;2023-08-08T07:25:41;3.47;;;2.13;;
39788;SDS011;25478;42.626;23.320;2023-08-08T07:28:07;4.47;;;2.10;;
39788;SDS011;25478;42.626;23.320;2023-08-08T07:30:33;2.30;;;1.55;;
39788;SDS011;25478;42.626;23.320;2023-08-08T07:32:59;1.90;;;1.60;;
39788;SDS011;25478;42.626;23.320;2023-08-08T07:35:25;3.47;;;1.55;;
39788;SDS011;25478;42.626;23.320;2023-08-08T07:37:50;3.30;;;1.75;;
39788;SDS011;25478;42.626;23.320;2023-08-08T07:40:16;7.07;;;1.80;;
39788;SDS011;25478;42.626;23.320;2023-08-08T07:42:43;2.80;;;1.63;;
39788;SDS011;25478;42.626;23.320;2023-08-08T07:45:09;3.65;;;1.40;;
39788;SDS011;25478;42.626;23.320;2023-08-08T07:47:35;2.80;;;1.42;;
39788;SDS011;25478;42.626;23.320;2023-08-08T07:50:00;4.55;;;1.63;;
39788;SDS011;25478;42.626;23.320;2023-08-08T07:52:26;3.60;;;1.40;;
39788;SDS011;25478;42.626;23.320;2023-08-08T07:54:51;3.65;;;1.80;;
39788;SDS011;25478;42.626;23.320;2023-08-08T07:57:18;2.55;;;1.45;;
39788;SDS011;25478;42.626;23.320;2023-08-08T07:59:43;4.43;;;1.67;;
39788;SDS011;25478;42.626;23.320;2023-08-08T08:02:09;2.50;;;1.70;;
39788;SDS011;25478;42.626;23.320;2023-08-08T08:04:34;3.13;;;1.77;;
39788;SDS011;25478;42.626;23.320;2023-08-08T08:07:00;3.00;;;1.20;;
39788;SDS011;25478;42.626;23.320;2023-08-08T08:09:26;2.30;;;1.60;;
39788;SDS011;25478;42.626;23.320;2023-08-08T08:11:51;4.57;;;1.70;;
39788;SDS011;25478;42.626;23.320;2023-08-08T08:14:17;2.28;;;1.55;;
39788;SDS011;25478;42.626;23.320;2023-08-08T08:16:44;1.58;;;1.15;;
39788;SDS011;25478;42.626;23.320;2023-08-08T08:19:10;1.67;;;1.20;;
39788;SDS011;25478;42.626;23.320;2023-08-08T08:21:35;1.60;;;1.33;;
39788;SDS011;25478;42.626;23.320;2023-08-08T08:24:01;4.45;;;1.55;;
39788;SDS011;25478;42.626;23.320;2023-08-08T08:26:27;2.55;;;1.35;;
39788;SDS011;25478;42.626;23.320;2023-08-08T08:28:53;6.47;;;1.60;;
39788;SDS011;25478;42.626;23.320;2023-08-08T08:31:18;3.58;;;1.70;;
39788;SDS011;25478;42.626;23.320;2023-08-08T08:33:44;2.28;;;1.50;;
39788;SDS011;25478;42.626;23.320;2023-08-08T08:36:09;6.20;;;1.80;;
39788;SDS011;25478;42.626;23.320;2023-08-08T08:38:35;3.10;;;1.63;;
39788;SDS011;25478;42.626;23.320;2023-08-08T08:41:00;7.22;;;2.13;;
39788;SDS011;25478;42.626;23.320;2023-08-08T08:43:28;3.92;;;1.80;;
39788;SDS011;25478;42.626;23.320;2023-08-08T08:45:53;4.82;;;1.77;;
39788;SDS011;25478;42.626;23.320;2023-08-08T08:48:20;2.95;;;1.73;;
39788;SDS011;25478;42.626;23.320;2023-08-08T08:50:47;2.50;;;1.42;;
39788;SDS011;25478;42.626;23.320;2023-08-08T08:53:14;2.88;;;1.40;;
39788;SDS011;25478;42.626;23.320;2023-08-08T08:55:41;4.03;;;1.80;;
39788;SDS011;25478;42.626;23.320;2023-08-08T08:58:06;3.85;;;2.13;;
39788;SDS011;25478;42.626;23.320;2023-08-08T09:00:33;4.47;;;1.90;;
39788;SDS011;25478;42.626;23.320;2023-08-08T09:03:00;4.13;;;2.03;;
39788;SDS011;25478;42.626;23.320;2023-08-08T09:05:26;4.65;;;2.47;;
39788;SDS011;25478;42.626;23.320;2023-08-08T09:07:51;5.35;;;2.35;;
39788;SDS011;25478;42.626;23.320;2023-08-08T09:10:17;4.03;;;2.35;;
39788;SDS011;25478;42.626;23.320;2023-08-08T09:12:45;7.57;;;2.78;;
39788;SDS011;25478;42.626;23.320;2023-08-08T09:15:11;5.38;;;2.25;;
39788;SDS011;25478;42.626;23.320;2023-08-08T09:17:40;3.80;;;2.42;;
39788;SDS011;25478;42.626;23.320;2023-08-08T09:20:07;3.03;;;1.63;;
39788;SDS011;25478;42.626;23.320;2023-08-08T09:22:33;4.20;;;2.50;;
39788;SDS011;25478;42.626;23.320;2023-08-08T09:24:58;3.45;;;2.10;;
39788;SDS011;25478;42.626;23.320;2023-08-08T09:27:24;2.67;;;1.90;;
39788;SDS011;25478;42.626;23.320;2023-08-08T09:29:49;2.90;;;1.65;;
39788;SDS011;25478;42.626;23.320;2023-08-08T09:32:15;2.70;;;1.75;;
39788;SDS011;25478;42.626;23.320;2023-08-08T09:34:43;2.55;;;1.80;;
39788;SDS011;25478;42.626;23.320;2023-08-08T09:37:09;3.20;;;1.95;;
39788;SDS011;25478;42.626;23.320;2023-08-08T09:39:36;3.15;;;2.17;;
39788;SDS011;25478;42.626;23.320;2023-08-08T09:42:02;2.88;;;2.05;;
39788;SDS011;25478;42.626;23.320;2023-08-08T09:44:29;2.88;;;2.17;;
39788;SDS011;25478;42.626;23.320;2023-08-08T09:46:56;3.22;;;2.38;;
39788;SDS011;25478;42.626;23.320;2023-08-08T09:49:22;3.53;;;2.08;;
39788;SDS011;25478;42.626;23.320;2023-08-08T09:51:51;4.63;;;2.10;;
39788;SDS011;25478;42.626;23.320;2023-08-08T09:54:17;4.07;;;2.13;;
39788;SDS011;25478;42.626;23.320;2023-08-08T09:56:43;2.40;;;2.15;;
39788;SDS011;25478;42.626;23.320;2023-08-08T09:59:09;5.13;;;2.17;;
39788;SDS011;25478;42.626;23.320;2023-08-08T10:01:36;2.70;;;1.90;;
39788;SDS011;25478;42.626;23.320;2023-08-08T10:04:04;3.20;;;2.28;;
39788;SDS011;25478;42.626;23.320;2023-08-08T10:06:31;2.17;;;1.88;;
39788;SDS011;25478;42.626;23.320;2023-08-08T10:08:57;3.95;;;2.00;;
39788;SDS011;25478;42.626;23.320;2023-08-08T10:11:24;4.28;;;2.10;;
39788;SDS011;25478;42.626;23.320;2023-08-08T10:13:50;3.40;;;2.20;;
39788;SDS011;25478;42.626;23.320;2023-08-08T10:16:18;3.42;;;2.10;;
39788;SDS011;25478;42.626;23.320;2023-08-08T10:18:45;5.40;;;2.50;;
39788;SDS011;25478;42.626;23.320;2023-08-08T10:21:11;3.35;;;2.25;;
39788;SDS011;25478;42.626;23.320;2023-08-08T10:23:38;3.05;;;2.45;;
39788;SDS011;25478;42.626;23.320;2023-08-08T10:26:05;2.58;;;2.20;;
39788;SDS011;25478;42.626;23.320;2023-08-08T10:28:51;3.30;;;2.33;;
39788;SDS011;25478;42.626;23.320;2023-08-08T10:31:20;3.40;;;2.03;;
39788;SDS011;25478;42.626;23.320;2023-08-08T10:33:46;3.60;;;2.20;;
39788;SDS011;25478;42.626;23.320;2023-08-08T10:36:12;4.28;;;2.30;;
39788;SDS011;25478;42.626;23.320;2023-08-08T10:38:48;2.30;;;1.85;;
39788;SDS011;25478;42.626;23.320;2023-08-08T10:41:18;2.45;;;1.95;;
39788;SDS011;25478;42.626;23.320;2023-08-08T10:43:49;4.38;;;2.20;;
39788;SDS011;25478;42.626;23.320;2023-08-08T10:46:23;3.72;;;2.10;;
39788;SDS011;25478;42.626;23.320;2023-08-08T10:48:49;2.78;;;2.00;;
39788;SDS011;25478;42.626;23.320;2023-08-08T10:51:16;3.08;;;2.10;;
39788;SDS011;25478;42.626;23.320;2023-08-08T10:53:42;3.08;;;2.08;;
39788;SDS011;25478;42.626;23.320;2023-08-08T10:56:11;2.45;;;1.88;;
39788;SDS011;25478;42.626;23.320;2023-08-08T10:58:46;3.50;;;1.77;;
39788;SDS011;25478;42.626;23.320;2023-08-08T11:01:13;3.08;;;1.90;;
39788;SDS011;25478;42.626;23.320;2023-08-08T11:03:40;3.95;;;2.10;;
39788;SDS011;25478;42.626;23.320;2023-08-08T11:06:06;3.30;;;1.80;;
39788;SDS011;25478;42.626;23.320;2023-08-08T11:08:33;2.30;;;1.63;;
39788;SDS011;25478;42.626;23.320;2023-08-08T11:11:00;4.00;;;1.55;;
39788;SDS011;25478;42.626;23.320;2023-08-08T11:13:26;3.15;;;1.80;;
39788;SDS011;25478;42.626;23.320;2023-08-08T11:15:51;2.75;;;1.70;;
39788;SDS011;25478;42.626;23.320;2023-08-08T11:18:17;2.42;;;1.40;;
39788;SDS011;25478;42.626;23.320;2023-08-08T11:20:43;4.57;;;1.60;;
39788;SDS011;25478;42.626;23.320;2023-08-08T11:23:09;3.05;;;1.60;;
39788;SDS011;25478;42.626;23.320;2023-08-08T11:25:41;3.15;;;1.60;;
39788;SDS011;25478;42.626;23.320;2023-08-08T11:28:08;3.10;;;1.60;;
39788;SDS011;25478;42.626;23.320;2023-08-08T11:30:36;2.38;;;1.40;;
39788;SDS011;25478;42.626;23.320;2023-08-08T11:33:03;2.38;;;1.50;;
39788;SDS011;25478;42.626;23.320;2023-08-08T11:35:28;2.65;;;1.40;;
39788;SDS011;25478;42.626;23.320;2023-08-08T11:37:56;1.95;;;1.30;;
39788;SDS011;25478;42.626;23.320;2023-08-08T11:40:25;1.52;;;1.23;;
39788;SDS011;25478;42.626;23.320;2023-08-08T11:42:52;2.50;;;1.60;;
39788;SDS011;25478;42.626;23.320;2023-08-08T11:45:19;3.38;;;1.60;;
39788;SDS011;25478;42.626;23.320;2023-08-08T11:47:48;4.40;;;1.80;;
39788;SDS011;25478;42.626;23.320;2023-08-08T11:50:15;2.50;;;1.55;;
39788;SDS011;25478;42.626;23.320;2023-08-08T11:52:45;4.30;;;1.80;;
39788;SDS011;25478;42.626;23.320;2023-08-08T11:55:11;2.15;;;1.50;;
39788;SDS011;25478;42.626;23.320;2023-08-08T11:57:38;3.10;;;1.55;;
39788;SDS011;25478;42.626;23.320;2023-08-08T12:00:08;2.55;;;1.45;;
39788;SDS011;25478;42.626;23.320;2023-08-08T12:02:41;2.88;;;1.60;;
39788;SDS011;25478;42.626;23.320;2023-08-08T12:05:08;2.88;;;1.60;;
39788;SDS011;25478;42.626;23.320;2023-08-08T12:07:36;3.38;;;1.52;;
39788;SDS011;25478;42.626;23.320;2023-08-08T12:10:03;2.00;;;1.60;;
39788;SDS011;25478;42.626;23.320;2023-08-08T12:12:31;2.67;;;1.60;;
39788;SDS011;25478;42.626;23.320;2023-08-08T12:15:06;2.78;;;1.60;;
39788;SDS011;25478;42.626;23.320;2023-08-08T12:17:34;2.22;;;1.80;;
39788;SDS011;25478;42.626;23.320;2023-08-08T12:20:00;2.38;;;1.60;;
39788;SDS011;25478;42.626;23.320;2023-08-08T12:22:26;2.15;;;1.50;;
39788;SDS011;25478;42.626;23.320;2023-08-08T12:24:51;2.30;;;1.63;;
39788;SDS011;25478;42.626;23.320;2023-08-08T12:27:17;2.20;;;1.38;;
39788;SDS011;25478;42.626;23.320;2023-08-08T12:29:43;3.72;;;1.60;;
39788;SDS011;25478;42.626;23.320;2023-08-08T12:32:09;2.60;;;1.63;;
39788;SDS011;25478;42.626;23.320;2023-08-08T12:34:35;3.47;;;1.70;;
39788;SDS011;25478;42.626;23.320;2023-08-08T12:37:01;2.47;;;1.73;;
39788;SDS011;25478;42.626;23.320;2023-08-08T12:39:27;2.33;;;1.60;;
39788;SDS011;25478;42.626;23.320;2023-08-08T12:41:53;2.58;;;1.98;;
39788;SDS011;25478;42.626;23.320;2023-08-08T12:44:19;3.95;;;1.90;;
39788;SDS011;25478;42.626;23.320;2023-08-08T12:46:44;4.32;;;1.88;;
39788;SDS011;25478;42.626;23.320;2023-08-08T12:49:10;2.10;;;1.65;;
39788;SDS011;25478;42.626;23.320;2023-08-08T12:51:35;3.33;;;1.85;;
39788;SDS011;25478;42.626;23.320;2023-08-08T12:54:01;2.58;;;1.80;;
39788;SDS011;25478;42.626;23.320;2023-08-08T12:56:26;4.88;;;1.77;;
39788;SDS011;25478;42.626;23.320;2023-08-08T12:58:52;2.03;;;1.60;;
39788;SDS011;25478;42.626;23.320;2023-08-08T13:01:17;2.92;;;1.90;;
39788;SDS011;25478;42.626;23.320;2023-08-08T13:03:43;3.88;;;2.30;;
39788;SDS011;25478;42.626;23.320;2023-08-08T13:06:08;4.18;;;1.80;;
39788;SDS011;25478;42.626;23.320;2023-08-08T13:08:37;5.40;;;1.60;;
39788;SDS011;25478;42.626;23.320;2023-08-08T13:11:03;2.63;;;1.45;;
39788;SDS011;25478;42.626;23.320;2023-08-08T13:13:28;2.15;;;1.60;;
39788;SDS011;25478;42.626;23.320;2023-08-08T13:15:54;2.88;;;1.60;;
39788;SDS011;25478;42.626;23.320;2023-08-08T13:18:19;3.90;;;1.70;;
39788;SDS011;25478;42.626;23.320;2023-08-08T13:20:45;3.97;;;1.75;;
39788;SDS011;25478;42.626;23.320;2023-08-08T13:23:10;2.50;;;1.70;;
39788;SDS011;25478;42.626;23.320;2023-08-08T13:25:36;5.18;;;1.80;;
39788;SDS011;25478;42.626;23.320;2023-08-08T13:28:02;2.78;;;1.63;;
39788;SDS011;25478;42.626;23.320;2023-08-08T13:30:28;2.45;;;1.60;;
39788;SDS011;25478;42.626;23.320;2023-08-08T13:32:54;1.85;;;1.52;;
39788;SDS011;25478;42.626;23.320;2023-08-08T13:35:20;3.97;;;1.95;;
39788;SDS011;25478;42.626;23.320;2023-08-08T13:37:45;3.72;;;1.65;;
39788;SDS011;25478;42.626;23.320;2023-08-08T13:40:16;2.30;;;1.70;;
39788;SDS011;25478;42.626;23.320;2023-08-08T13:42:41;3.53;;;1.67;;
39788;SDS011;25478;42.626;23.320;2023-08-08T13:45:07;3.90;;;1.80;;
39788;SDS011;25478;42.626;23.320;2023-08-08T13:47:33;2.55;;;1.80;;
39788;SDS011;25478;42.626;23.320;2023-08-08T13:49:58;2.92;;;2.15;;
39788;SDS011;25478;42.626;23.320;2023-08-08T13:52:24;3.08;;;1.80;;
39788;SDS011;25478;42.626;23.320;2023-08-08T13:54:50;2.42;;;1.80;;
39788;SDS011;25478;42.626;23.320;2023-08-08T13:57:16;3.50;;;2.10;;
39788;SDS011;25478;42.626;23.320;2023-08-08T13:59:42;2.30;;;1.70;;
39788;SDS011;25478;42.626;23.320;2023-08-08T14:02:07;3.10;;;1.70;;
39788;SDS011;25478;42.626;23.320;2023-08-08T14:04:33;4.35;;;1.70;;
39788;SDS011;25478;42.626;23.320;2023-08-08T14:06:58;3.90;;;2.00;;
39788;SDS011;25478;42.626;23.320;2023-08-08T14:09:24;3.50;;;2.00;;
39788;SDS011;25478;42.626;23.320;2023-08-08T14:11:49;2.58;;;1.90;;
39788;SDS011;25478;42.626;23.320;2023-08-08T14:14:15;2.63;;;1.70;;
39788;SDS011;25478;42.626;23.320;2023-08-08T14:16:40;2.22;;;1.90;;
39788;SDS011;25478;42.626;23.320;2023-08-08T14:19:06;2.47;;;1.77;;
39788;SDS011;25478;42.626;23.320;2023-08-08T14:21:33;3.97;;;1.92;;
39788;SDS011;25478;42.626;23.320;2023-08-08T14:23:58;3.33;;;1.90;;
39788;SDS011;25478;42.626;23.320;2023-08-08T14:26:24;3.95;;;2.10;;
39788;SDS011;25478;42.626;23.320;2023-08-08T14:28:49;2.38;;;1.80;;
39788;SDS011;25478;42.626;23.320;2023-08-08T14:31:15;2.67;;;1.83;;
39788;SDS011;25478;42.626;23.320;2023-08-08T14:33:40;5.65;;;1.80;;